Terminal Aerodrome Forecast
Issued by NWS

Home | Current Version | Previous Version | Text Only | Print | Product List | Glossary On
Versions: 1 2 3 4 5 6 7 8 9 10 11 12 13 14 15 16 17 18
000
FTUS43 KFGF 130700 AAA
TAFTVF
TAF AMD
KTVF 130701Z 1307/1406 33008KT 3SM BR FEW080
      TEMPO 1307/1311 1/4SM FG OVC001
     FM131600 32017G25KT P6SM BKN080
     FM140100 33010KT P6SM OVC035
      AMD LTD TO CLD VIS AND WIND=

USA.gov is the U.S. government's official web portal to all federal, state and local government web resources and services.